Time;durP1;ratioP1;P1;durP2;ratioP2;P2;SDS_P1;SDS_P2;PMS_P1;PMS_P2;Temp;Humidity;BMP_temperature;BMP_pressure;BME280_temperature;BME280_humidity;BME280_pressure;Samples;Min_cycle;Max_cycle;Signal;HPM_P1;HPM_P2
2023/06/10 00:01:07;;;;;;;36.57;26.67;;;23.40;92.80;;;;;;4981665;28;20204;-78
2023/06/10 00:03:36;;;;;;;30.60;24.87;;;23.30;93.00;;;;;;4983224;28;20225;-79
2023/06/10 00:06:05;;;;;;;32.07;27.33;;;23.30;93.10;;;;;;4979963;28;20208;-79
2023/06/10 00:08:33;;;;;;;34.07;25.90;;;23.30;93.20;;;;;;5011322;28;20210;-79
2023/06/10 00:11:00;;;;;;;33.23;27.03;;;23.20;93.10;;;;;;4995550;28;20212;-78
2023/06/10 00:13:27;;;;;;;31.43;24.67;;;23.10;93.10;;;;;;4981548;28;20205;-78
2023/06/10 00:15:55;;;;;;;37.60;25.83;;;23.10;93.40;;;;;;4989257;28;20197;-78
2023/06/10 00:18:22;;;;;;;37.53;28.53;;;23.10;93.50;;;;;;4983440;28;20213;-81
2023/06/10 00:20:52;;;;;;;30.33;25.57;;;23.10;93.70;;;;;;4980640;28;20266;-78
2023/06/10 00:23:20;;;;;;;37.13;24.93;;;23.00;93.70;;;;;;4996360;28;20204;-77
2023/06/10 00:25:48;;;;;;;23.20;20.67;;;23.00;93.70;;;;;;4992346;28;20227;-78
2023/06/10 00:28:15;;;;;;;24.10;21.50;;;23.00;93.80;;;;;;4994876;28;20225;-78
2023/06/10 00:30:43;;;;;;;21.70;19.37;;;23.00;93.90;;;;;;5006777;28;20248;-79
2023/06/10 00:33:10;;;;;;;20.40;17.53;;;23.00;94.20;;;;;;4994917;28;20225;-78
2023/06/10 00:35:45;;;;;;;17.80;15.90;;;22.90;93.80;;;;;;4977683;28;20587;-78
2023/06/10 00:38:16;;;;;;;17.23;14.27;;;22.90;93.70;;;;;;4979583;28;20229;-78
2023/06/10 00:40:43;;;;;;;14.80;13.30;;;22.90;93.70;;;;;;4981418;28;20695;-77
2023/06/10 00:43:11;;;;;;;15.40;12.73;;;22.80;93.70;;;;;;4997133;28;20213;-77
2023/06/10 00:45:38;;;;;;;15.67;14.07;;;22.80;93.80;;;;;;4988954;28;20212;-77
2023/06/10 00:48:16;;;;;;;14.20;12.80;;;22.80;93.90;;;;;;5011122;28;20723;-80
2023/06/10 00:50:52;;;;;;;14.30;12.33;;;22.80;93.90;;;;;;4998687;28;20235;-78
2023/06/10 00:53:25;;;;;;;12.50;11.20;;;22.70;93.90;;;;;;4997203;28;20196;-78
2023/06/10 00:55:55;;;;;;;10.63;9.30;;;22.70;93.90;;;;;;5001919;28;20267;-78
2023/06/10 00:58:28;;;;;;;8.90;8.10;;;22.70;94.00;;;;;;4989638;28;20199;-77
2023/06/10 01:00:55;;;;;;;9.27;8.37;;;22.70;94.10;;;;;;5018266;28;20204;-77
2023/06/10 01:03:27;;;;;;;15.43;11.70;;;22.70;94.20;;;;;;4998334;28;20204;-77
2023/06/10 01:06:06;;;;;;;17.37;14.57;;;22.70;94.20;;;;;;4988975;28;20203;-78
2023/06/10 01:08:41;;;;;;;22.53;17.13;;;22.60;94.30;;;;;;5004047;28;20207;-78
2023/06/10 01:11:18;;;;;;;20.53;15.30;;;22.60;94.40;;;;;;4988020;28;20227;-79
2023/06/10 01:13:46;;;;;;;23.70;16.17;;;22.60;94.50;;;;;;5003981;28;20199;-77
2023/06/10 01:16:13;;;;;;;25.63;16.23;;;22.60;94.60;;;;;;5018034;28;20561;-77
2023/06/10 01:18:41;;;;;;;28.97;17.07;;;22.60;94.60;;;;;;5000584;28;20207;-79
2023/06/10 01:21:24;;;;;;;26.07;17.23;;;22.60;94.70;;;;;;4999059;28;20247;-78
2023/06/10 01:23:55;;;;;;;18.93;15.23;;;22.50;94.80;;;;;;5003620;28;20628;-82
2023/06/10 01:26:28;;;;;;;21.73;16.03;;;22.50;94.90;;;;;;5004193;28;20644;-79
2023/06/10 01:29:00;;;;;;;20.67;14.60;;;22.50;94.90;;;;;;5002571;28;20204;-83
2023/06/10 01:31:33;;;;;;;20.70;14.80;;;22.40;94.90;;;;;;4987423;28;20236;-80
2023/06/10 01:34:02;;;;;;;18.33;13.90;;;22.40;95.00;;;;;;5003507;28;20635;-81
2023/06/10 01:36:32;;;;;;;20.87;12.93;;;22.40;95.00;;;;;;5002107;28;20310;-79
2023/06/10 01:39:00;;;;;;;28.30;17.57;;;22.40;95.00;;;;;;5002010;28;20210;-78
2023/06/10 01:41:29;;;;;;;27.30;16.07;;;22.30;95.00;;;;;;4990160;28;20697;-81
2023/06/10 01:43:56;;;;;;;40.37;17.33;;;22.30;95.00;;;;;;5002613;28;20196;-82
2023/06/10 01:46:24;;;;;;;27.43;16.87;;;22.30;95.10;;;;;;4993491;28;20192;-82
2023/06/10 01:48:53;;;;;;;21.77;13.00;;;22.20;95.10;;;;;;5001716;28;20266;-83
2023/06/10 01:51:23;;;;;;;18.70;13.50;;;22.20;95.10;;;;;;4987295;28;20232;-83
2023/06/10 01:54:15;;;;;;;16.57;13.20;;;22.10;95.10;;;;;;4986546;28;20210;-81
2023/06/10 01:56:43;;;;;;;17.93;13.87;;;22.00;95.20;;;;;;4998724;28;20205;-83
2023/06/10 01:59:11;;;;;;;17.87;14.50;;;22.00;95.20;;;;;;5000132;28;20204;-81
2023/06/10 02:01:38;;;;;;;18.97;14.40;;;22.00;95.30;;;;;;5005042;28;20238;-81
2023/06/10 02:04:05;;;;;;;23.07;16.40;;;22.00;95.30;;;;;;5003020;28;20628;-82
2023/06/10 02:06:32;;;;;;;24.73;15.63;;;21.90;95.40;;;;;;4999327;28;20231;-83
2023/06/10 02:09:00;;;;;;;22.17;15.67;;;21.90;95.50;;;;;;4987957;28;20624;-81
2023/06/10 02:11:29;;;;;;;18.17;15.00;;;21.90;95.60;;;;;;4997496;28;20246;-82
2023/06/10 02:13:57;;;;;;;22.50;15.70;;;21.90;95.60;;;;;;5001672;28;20204;-83
2023/06/10 02:16:24;;;;;;;21.13;14.10;;;21.90;95.70;;;;;;4984661;28;20207;-82
2023/06/10 02:18:52;;;;;;;17.97;14.37;;;21.80;95.60;;;;;;4999241;28;20290;-83
2023/06/10 02:21:19;;;;;;;13.93;12.07;;;21.80;95.70;;;;;;4985740;28;20216;-82
2023/06/10 02:23:46;;;;;;;19.97;14.27;;;21.80;95.80;;;;;;5001128;28;20270;-82
2023/06/10 02:26:13;;;;;;;16.90;14.73;;;21.70;95.70;;;;;;5001835;28;20196;-81
2023/06/10 02:28:44;;;;;;;15.23;13.07;;;21.70;95.80;;;;;;4985243;28;20291;-82
2023/06/10 02:31:13;;;;;;;18.90;14.93;;;21.70;95.80;;;;;;5001422;28;20748;-82
2023/06/10 02:33:41;;;;;;;18.83;13.63;;;21.70;95.90;;;;;;5002852;28;20196;-82
2023/06/10 02:36:12;;;;;;;12.83;6.70;;;21.70;96.00;;;;;;5016076;28;20532;-82
2023/06/10 02:38:40;;;;;;;8.60;4.10;;;21.70;95.90;;;;;;4998545;28;20207;-82
2023/06/10 02:41:08;;;;;;;9.77;4.67;;;21.60;95.40;;;;;;4980067;28;20290;-82
2023/06/10 02:43:35;;;;;;;16.13;5.87;;;21.60;95.20;;;;;;4992427;28;20201;-83
2023/06/10 02:46:07;;;;;;;9.43;4.47;;;21.50;95.30;;;;;;4997225;28;20208;-82
2023/06/10 02:48:43;;;;;;;8.63;4.70;;;21.50;95.50;;;;;;4984224;28;20326;-81
2023/06/10 02:51:13;;;;;;;9.17;3.87;;;21.50;95.70;;;;;;5000616;28;20696;-81
2023/06/10 02:53:44;;;;;;;5.53;4.10;;;21.40;95.70;;;;;;4979129;28;20269;-83
2023/06/10 02:56:16;;;;;;;7.07;4.50;;;21.40;95.80;;;;;;4984172;28;20303;-81
2023/06/10 02:58:43;;;;;;;9.13;4.67;;;21.40;95.90;;;;;;5000060;28;20203;-82
2023/06/10 03:01:13;;;;;;;7.87;4.57;;;21.50;95.90;;;;;;5001113;28;20206;-81
2023/06/10 03:03:50;;;;;;;7.50;4.60;;;21.50;95.90;;;;;;5001733;28;20290;-82
2023/06/10 03:06:18;;;;;;;6.60;4.63;;;21.50;95.90;;;;;;4997588;28;20208;-82
2023/06/10 03:09:07;;;;;;;5.43;4.90;;;21.50;95.90;;;;;;4994278;28;20219;-80
2023/06/10 03:11:35;;;;;;;5.97;5.07;;;21.50;95.90;;;;;;5001102;28;20243;-81
2023/06/10 03:14:06;;;;;;;5.37;4.83;;;21.50;95.90;;;;;;4997946;28;20208;-80
2023/06/10 03:16:34;;;;;;;5.77;5.27;;;21.50;95.90;;;;;;5012087;28;20258;-80
2023/06/10 03:19:04;;;;;;;6.10;5.27;;;21.50;95.90;;;;;;4991434;28;20724;-79
2023/06/10 03:21:32;;;;;;;6.87;4.93;;;21.60;95.90;;;;;;4995861;28;20283;-80
2023/06/10 03:24:00;;;;;;;6.90;5.57;;;21.50;96.00;;;;;;4993416;28;20212;-78
2023/06/10 03:26:27;;;;;;;6.03;4.47;;;21.50;96.10;;;;;;5012099;28;20195;-80
2023/06/10 03:28:55;;;;;;;11.33;4.20;;;21.60;96.10;;;;;;4982336;28;20292;-82
2023/06/10 03:31:24;;;;;;;6.30;4.53;;;21.50;96.20;;;;;;4999063;28;20653;-79
2023/06/10 03:34:49;;;;;;;5.23;4.73;;;21.50;96.20;;;;;;5003516;28;21345;-80
2023/06/10 03:37:03;;;;;;;6.17;5.57;;;21.50;96.20;;;;;;4997245;28;20639;-80
2023/06/10 03:39:36;;;;;;;12.27;6.10;;;21.50;96.10;;;;;;4983223;28;20210;-79
2023/06/10 03:42:09;;;;;;;7.40;6.63;;;21.50;96.10;;;;;;5000449;28;20208;-79
2023/06/10 03:45:10;;;;;;;9.13;5.90;;;21.50;96.10;;;;;;4996694;28;20205;-80
2023/06/10 03:47:40;;;;;;;8.43;6.30;;;21.50;96.30;;;;;;4985738;28;20216;-80
2023/06/10 03:50:23;;;;;;;6.67;6.07;;;21.40;96.30;;;;;;4997178;28;20274;-80
2023/06/10 03:53:01;;;;;;;9.33;6.87;;;21.50;96.40;;;;;;4988987;28;20574;-80
2023/06/10 03:55:59;;;;;;;11.60;8.37;;;21.50;96.40;;;;;;4995056;28;20207;-80
2023/06/10 03:58:30;;;;;;;10.87;9.57;;;21.50;96.50;;;;;;4996633;28;20207;-80
2023/06/10 04:01:15;;;;;;;14.10;9.53;;;21.50;96.50;;;;;;5000280;28;20204;-79
2023/06/10 04:04:16;;;;;;;14.17;9.53;;;21.50;96.60;;;;;;5011821;28;20218;-80
2023/06/10 04:06:46;;;;;;;14.67;10.53;;;21.60;96.60;;;;;;4990907;28;20208;-80
2023/06/10 04:09:21;;;;;;;11.80;10.50;;;21.60;96.60;;;;;;4990301;28;20236;-80
2023/06/10 04:12:11;;;;;;;14.20;11.63;;;21.60;96.60;;;;;;4985322;28;20311;-80
2023/06/10 04:14:50;;;;;;;13.67;12.10;;;21.60;96.70;;;;;;5006798;28;20204;-79
2023/06/10 04:17:20;;;;;;;14.83;13.27;;;21.60;96.70;;;;;;5001881;28;20295;-80
2023/06/10 04:20:34;;;;;;;17.57;14.90;;;21.60;96.70;;;;;;5002711;28;20722;-80
2023/06/10 04:23:28;;;;;;;20.27;16.37;;;21.70;96.80;;;;;;4998909;28;20553;-79
2023/06/10 04:26:15;;;;;;;23.97;17.63;;;21.70;96.80;;;;;;4997111;28;20257;-80
2023/06/10 04:28:56;;;;;;;20.60;18.33;;;21.70;96.90;;;;;;5000289;28;20546;-81
2023/06/10 04:31:32;;;;;;;21.30;17.17;;;21.80;96.90;;;;;;4997730;28;20234;-80
2023/06/10 04:34:11;;;;;;;21.90;17.40;;;21.80;97.00;;;;;;4998164;28;20226;-80
2023/06/10 04:36:45;;;;;;;20.77;16.97;;;21.80;97.00;;;;;;4979742;28;20652;-81
2023/06/10 04:39:34;;;;;;;20.50;16.30;;;21.80;97.00;;;;;;4982602;28;20211;-79
2023/06/10 04:42:27;;;;;;;18.43;16.33;;;21.90;97.10;;;;;;4989840;28;20220;-79
2023/06/10 04:45:12;;;;;;;20.87;17.37;;;21.90;97.10;;;;;;4981542;28;20214;-79
2023/06/10 04:48:07;;;;;;;25.57;17.00;;;21.90;97.10;;;;;;4993814;28;20647;-80
2023/06/10 04:50:45;;;;;;;24.43;16.70;;;21.90;97.10;;;;;;4985437;28;20211;-79
2023/06/10 04:53:20;;;;;;;21.13;16.73;;;21.90;97.10;;;;;;4999931;28;20234;-80
2023/06/10 04:56:07;;;;;;;20.07;17.47;;;21.90;97.10;;;;;;5000924;28;20207;-80
2023/06/10 04:59:01;;;;;;;23.83;18.03;;;22.00;97.10;;;;;;4982857;28;20659;-78
2023/06/10 05:01:34;;;;;;;22.00;17.83;;;22.00;97.10;;;;;;4996080;28;20227;-79
2023/06/10 05:04:07;;;;;;;23.10;17.87;;;22.00;97.20;;;;;;4989397;28;20211;-79
2023/06/10 05:06:56;;;;;;;;;;;;;;;;;;;;;
2023/06/10 05:09:45;;;;;;;24.83;19.33;;;22.00;97.20;;;;;;5016045;28;20214;-80
2023/06/10 05:12:28;;;;;;;26.47;19.67;;;22.00;97.30;;;;;;4997812;28;20690;-80
2023/06/10 05:15:34;;;;;;;25.63;19.77;;;22.00;97.30;;;;;;4985027;28;20632;-79
2023/06/10 05:30:29;;;;;;;28.37;21.63;;;22.10;97.40;;;;;;4864735;29;20196;-79
2023/06/10 05:32:57;;;;;;;29.03;20.57;;;22.10;97.40;;;;;;4907226;29;20233;-79
2023/06/10 05:36:06;;;;;;;28.47;21.97;;;22.20;97.40;;;;;;4942456;29;20213;-80
2023/06/10 05:38:55;;;;;;;29.37;21.50;;;22.20;97.50;;;;;;4911725;29;20201;-80
2023/06/10 05:41:49;;;;;;;27.13;21.17;;;22.20;97.50;;;;;;4943674;29;20623;-79
2023/06/10 05:45:06;;;;;;;26.33;21.93;;;22.10;97.50;;;;;;4946354;29;20270;-80
2023/06/10 05:47:41;;;;;;;35.80;21.97;;;22.20;97.50;;;;;;4945482;28;20552;-80
2023/06/10 05:50:52;;;;;;;29.83;23.87;;;22.20;97.50;;;;;;4949038;29;20238;-81
2023/06/10 05:53:42;;;;;;;26.50;22.13;;;22.20;97.50;;;;;;4990023;28;20336;-81
2023/06/10 05:59:44;;;;;;;25.47;21.83;;;22.20;97.60;;;;;;4995595;28;20825;-80
2023/06/10 06:02:31;;;;;;;25.97;20.57;;;22.20;97.60;;;;;;4985333;28;20204;-81
2023/06/10 06:05:05;;;;;;;28.27;21.07;;;22.20;97.60;;;;;;4980596;28;20208;-81
2023/06/10 06:08:23;;;;;;;26.70;20.97;;;22.20;97.60;;;;;;4981690;28;20204;-80
2023/06/10 06:10:56;;;;;;;25.40;21.60;;;22.20;97.70;;;;;;4991030;28;20611;-80
2023/06/10 06:13:42;;;;;;;29.73;21.50;;;22.20;97.70;;;;;;4981737;28;20211;-81
2023/06/10 06:16:45;;;;;;;25.63;20.53;;;22.20;97.60;;;;;;4980016;28;20204;-82
2023/06/10 06:19:42;;;;;;;23.13;20.40;;;22.20;97.60;;;;;;4994935;28;20196;-80
2023/06/10 06:22:36;;;;;;;27.63;21.23;;;22.20;97.60;;;;;;4984830;28;20304;-80
2023/06/10 06:25:19;;;;;;;24.03;20.40;;;22.20;97.60;;;;;;4981955;28;20216;-80
2023/06/10 06:28:08;;;;;;;;;;;;;;;;;;;;;
2023/06/10 06:30:50;;;;;;;23.53;21.03;;;22.20;97.70;;;;;;5000640;28;20231;-80
2023/06/10 06:36:43;;;;;;;25.20;22.07;;;22.20;97.70;;;;;;5005587;28;20675;-80
2023/06/10 06:39:41;;;;;;;26.03;20.37;;;22.30;97.80;;;;;;4995044;28;20367;-81
2023/06/10 06:42:13;;;;;;;25.33;21.23;;;22.30;97.80;;;;;;4997486;28;20525;-82
2023/06/10 06:45:06;;;;;;;29.00;20.37;;;22.30;97.80;;;;;;4982638;28;20271;-80
2023/06/10 06:48:13;;;;;;;23.80;20.87;;;22.40;97.90;;;;;;4987618;28;20647;-81
2023/06/10 06:51:00;;;;;;;27.97;21.03;;;22.40;97.90;;;;;;4979914;28;20216;-79
2023/06/10 06:54:06;;;;;;;27.20;22.27;;;22.50;97.90;;;;;;4997056;28;20565;-80
2023/06/10 06:56:43;;;;;;;24.07;20.90;;;22.50;97.90;;;;;;4963490;28;20665;-80
2023/06/10 06:59:13;;;;;;;27.97;22.03;;;22.50;97.80;;;;;;4963561;28;20632;-80
2023/06/10 07:01:45;;;;;;;24.80;22.27;;;22.60;97.80;;;;;;4995528;28;20604;-80
2023/06/10 07:04:19;;;;;;;28.93;21.67;;;22.60;97.80;;;;;;4996809;28;20204;-79
2023/06/10 07:06:51;;;;;;;24.63;20.50;;;22.70;97.80;;;;;;4984641;28;20212;-80
2023/06/10 07:09:22;;;;;;;27.60;21.37;;;22.70;97.80;;;;;;4974611;28;20547;-80
2023/06/10 07:12:08;;;;;;;26.00;22.57;;;22.70;97.80;;;;;;4980839;28;20248;-79
2023/06/10 07:15:00;;;;;;;28.83;21.90;;;22.80;98.10;;;;;;4981177;28;20251;-80
2023/06/10 07:17:47;;;;;;;28.33;22.07;;;22.90;97.80;;;;;;4996061;28;20299;-80
2023/06/10 07:20:23;;;;;;;27.10;21.37;;;23.00;97.70;;;;;;4981354;28;20228;-80
2023/06/10 07:23:27;;;;;;;24.10;21.13;;;23.00;97.70;;;;;;4984701;28;20222;-79
2023/06/10 07:25:55;;;;;;;25.87;21.93;;;23.00;97.60;;;;;;4981328;28;20615;-80
2023/06/10 07:28:32;;;;;;;29.83;21.00;;;23.10;97.60;;;;;;4974270;28;20247;-79
2023/06/10 07:31:08;;;;;;;29.97;21.77;;;23.10;97.60;;;;;;4998212;28;20629;-80
2023/06/10 07:33:53;;;;;;;30.57;20.87;;;23.20;97.60;;;;;;4999651;28;20212;-80
2023/06/10 07:36:46;;;;;;;26.47;19.83;;;23.30;97.50;;;;;;4988669;28;20319;-79
2023/06/10 07:39:14;;;;;;;25.73;19.93;;;23.40;97.40;;;;;;5001993;28;20224;-79
2023/06/10 07:42:13;;;;;;;25.50;19.73;;;23.40;97.30;;;;;;4980801;28;20652;-80
2023/06/10 07:44:43;;;;;;;24.93;19.17;;;23.50;97.00;;;;;;5011397;28;20208;-79
2023/06/10 07:47:11;;;;;;;21.37;18.53;;;23.70;96.90;;;;;;4970297;28;20204;-80
2023/06/10 07:49:40;;;;;;;18.30;16.33;;;23.70;96.40;;;;;;5007735;28;20634;-81
2023/06/10 07:52:17;;;;;;;20.93;17.80;;;23.80;96.20;;;;;;4993107;28;20247;-83
2023/06/10 07:54:45;;;;;;;21.10;17.10;;;23.90;95.90;;;;;;4994278;28;20205;-79
2023/06/10 07:57:16;;;;;;;22.47;17.43;;;23.90;95.40;;;;;;4993149;28;20196;-79
2023/06/10 07:59:44;;;;;;;20.90;17.43;;;23.90;95.30;;;;;;4990512;28;20208;-80
2023/06/10 08:02:12;;;;;;;21.77;17.60;;;23.90;95.20;;;;;;5003468;28;20197;-80
2023/06/10 08:04:40;;;;;;;21.57;18.13;;;23.90;95.30;;;;;;4977914;28;20204;-79
2023/06/10 08:07:11;;;;;;;23.40;19.07;;;23.80;95.30;;;;;;4986576;28;20208;-85
2023/06/10 08:09:50;;;;;;;24.63;17.97;;;23.80;95.40;;;;;;5007766;28;20203;-80
2023/06/10 08:12:20;;;;;;;24.97;19.10;;;23.80;95.20;;;;;;4995277;28;20275;-79
2023/06/10 08:15:03;;;;;;;23.90;18.23;;;23.80;95.20;;;;;;5002281;28;20684;-79
2023/06/10 08:17:31;;;;;;;21.70;18.03;;;23.80;95.30;;;;;;4994959;28;20243;-79
2023/06/10 08:20:01;;;;;;;21.50;18.50;;;23.90;95.50;;;;;;5006039;28;20232;-82
2023/06/10 08:22:29;;;;;;;22.47;17.23;;;24.00;95.50;;;;;;5004397;28;20220;-86
2023/06/10 08:24:59;;;;;;;19.23;15.93;;;24.00;95.10;;;;;;4986526;28;20677;-82
2023/06/10 08:27:27;;;;;;;19.60;16.20;;;24.00;94.50;;;;;;5004623;28;20300;-80
2023/06/10 08:30:00;;;;;;;23.73;17.33;;;24.00;94.20;;;;;;4980502;28;20212;-80
2023/06/10 08:32:28;;;;;;;22.33;17.43;;;24.00;94.50;;;;;;4981119;28;20208;-80
2023/06/10 08:35:01;;;;;;;19.57;17.53;;;24.10;94.60;;;;;;4979890;28;20303;-83
2023/06/10 08:37:39;;;;;;;22.03;17.67;;;24.20;94.30;;;;;;4998490;28;20208;-80
2023/06/10 08:40:18;;;;;;;18.67;16.67;;;24.20;94.10;;;;;;4995157;28;20200;-85
2023/06/10 08:43:04;;;;;;;24.30;17.23;;;24.30;94.00;;;;;;4983195;28;20209;-80
2023/06/10 08:45:37;;;;;;;20.03;17.57;;;24.40;94.30;;;;;;4995640;28;20275;-85
2023/06/10 08:48:12;;;;;;;21.03;19.10;;;24.50;93.90;;;;;;4978867;28;20578;-84
2023/06/10 08:50:44;;;;;;;18.57;16.70;;;24.50;93.60;;;;;;4968516;28;20222;-84
2023/06/10 08:54:06;;;;;;;21.30;17.80;;;24.60;93.50;;;;;;4993316;28;20262;-82
2023/06/10 08:56:39;;;;;;;24.37;18.00;;;24.60;93.10;;;;;;4994914;28;20239;-80
2023/06/10 08:59:10;;;;;;;22.23;16.50;;;24.60;92.70;;;;;;4994943;28;20209;-81
2023/06/10 09:01:38;;;;;;;18.83;16.93;;;24.70;92.60;;;;;;4974234;28;20200;-83
2023/06/10 09:04:10;;;;;;;21.43;17.93;;;24.70;92.60;;;;;;4992191;28;20216;-83
2023/06/10 09:06:44;;;;;;;19.10;16.47;;;24.70;92.40;;;;;;4975532;28;20535;-84
2023/06/10 09:09:28;;;;;;;21.17;17.20;;;24.80;92.20;;;;;;4977482;28;20219;-80
2023/06/10 09:11:59;;;;;;;22.00;16.80;;;24.80;92.00;;;;;;5004977;28;20668;-81
2023/06/10 09:14:27;;;;;;;19.93;17.13;;;24.90;92.10;;;;;;4993424;28;20202;-79
2023/06/10 09:16:57;;;;;;;19.37;16.57;;;25.10;92.20;;;;;;4972579;28;20215;-80
2023/06/10 09:19:42;;;;;;;19.13;17.27;;;25.30;92.00;;;;;;4990206;28;20211;-81
2023/06/10 09:22:16;;;;;;;19.23;16.17;;;25.50;91.50;;;;;;4994997;28;20212;-80
2023/06/10 09:24:46;;;;;;;21.30;16.53;;;25.70;91.20;;;;;;4982808;28;20208;-81
2023/06/10 09:27:16;;;;;;;19.90;16.17;;;25.70;91.20;;;;;;4995900;28;20556;-81
2023/06/10 09:30:11;;;;;;;18.13;16.40;;;25.80;91.00;;;;;;5010950;28;20225;-81
2023/06/10 09:32:43;;;;;;;16.30;13.93;;;25.80;90.80;;;;;;5012699;28;20228;-82
2023/06/10 09:35:35;;;;;;;14.97;13.57;;;25.70;90.30;;;;;;4979024;28;20681;-83
2023/06/10 09:38:03;;;;;;;15.87;14.27;;;25.70;90.00;;;;;;4995982;28;20231;-82
2023/06/10 09:40:57;;;;;;;13.30;11.97;;;25.60;90.00;;;;;;4993854;28;20215;-82
2023/06/10 09:43:44;;;;;;;10.83;8.33;;;25.40;89.80;;;;;;4995446;28;20603;-82
2023/06/10 09:47:12;;;;;;;10.43;9.47;;;25.30;89.00;;;;;;4992637;28;20215;-81
2023/06/10 09:50:10;;;;;;;10.27;9.17;;;25.20;88.80;;;;;;5011880;28;20298;-81
2023/06/10 09:52:48;;;;;;;12.23;8.47;;;25.00;89.50;;;;;;4997031;28;20335;-80
2023/06/10 09:55:44;;;;;;;9.13;6.90;;;24.90;89.50;;;;;;4983166;28;20215;-83
2023/06/10 09:58:46;;;;;;;9.77;8.13;;;24.80;88.80;;;;;;4986234;28;20234;-82
2023/06/10 10:01:20;;;;;;;14.53;9.47;;;24.80;88.40;;;;;;4983372;28;20540;-82
2023/06/10 10:04:03;;;;;;;10.13;8.27;;;24.70;88.40;;;;;;5008419;28;20656;-83
2023/06/10 10:06:39;;;;;;;8.67;6.73;;;24.70;89.10;;;;;;4998629;28;20212;-81
2023/06/10 10:09:07;;;;;;;9.03;6.27;;;24.70;88.70;;;;;;4991009;28;20202;-81
2023/06/10 10:12:20;;;;;;;7.27;6.20;;;24.70;88.90;;;;;;4998655;28;20224;-80
2023/06/10 10:15:07;;;;;;;6.17;5.17;;;24.70;88.90;;;;;;4983376;28;20215;-81
2023/06/10 10:18:17;;;;;;;8.00;5.47;;;24.70;87.70;;;;;;4999955;28;20624;-81
2023/06/10 10:24:27;;;;;;;6.17;4.90;;;24.70;87.60;;;;;;5008671;28;20202;-82
2023/06/10 10:27:01;;;;;;;7.53;5.67;;;24.80;87.30;;;;;;4985446;28;20211;-81
2023/06/10 10:29:38;;;;;;;6.70;2.93;;;24.90;87.20;;;;;;4982195;28;20207;-81
2023/06/10 10:32:17;;;;;;;3.83;2.63;;;25.00;86.80;;;;;;4998887;28;20592;-81
2023/06/10 10:35:24;;;;;;;3.60;2.30;;;25.10;84.50;;;;;;4984112;28;20210;-82
2023/06/10 10:37:55;;;;;;;5.60;2.40;;;25.20;82.40;;;;;;4923089;29;20533;-81
2023/06/10 10:40:33;;;;;;;5.23;2.40;;;25.30;81.60;;;;;;4981022;28;20212;-82
2023/06/10 10:43:03;;;;;;;3.90;1.80;;;25.40;81.20;;;;;;4981328;28;20679;-79
2023/06/10 10:45:33;;;;;;;3.20;1.80;;;25.40;79.80;;;;;;5000909;28;21033;-79
2023/06/10 10:48:14;;;;;;;4.03;1.87;;;25.40;79.80;;;;;;4992906;28;20755;-80
2023/06/10 10:51:00;;;;;;;4.50;2.23;;;25.40;80.40;;;;;;4995156;28;20619;-80
2023/06/10 10:53:39;;;;;;;2.20;1.90;;;25.40;80.40;;;;;;4995879;28;20236;-79
2023/06/10 10:56:20;;;;;;;3.17;1.93;;;25.40;78.20;;;;;;4990097;28;20207;-81
2023/06/10 10:59:05;;;;;;;2.10;1.90;;;25.30;79.20;;;;;;4994521;28;20208;-80
2023/06/10 11:01:46;;;;;;;3.10;2.00;;;25.20;80.60;;;;;;4987575;28;20205;-81
2023/06/10 11:04:19;;;;;;;2.27;1.77;;;25.20;80.00;;;;;;5005185;28;20205;-81
2023/06/10 11:06:54;;;;;;;3.13;1.90;;;25.10;80.20;;;;;;4995637;28;20290;-80
2023/06/10 11:09:31;;;;;;;3.37;1.77;;;25.10;80.20;;;;;;4980236;28;20202;-79
2023/06/10 11:11:59;;;;;;;4.27;2.03;;;25.00;80.20;;;;;;4976164;28;20213;-80
2023/06/10 11:14:31;;;;;;;4.07;2.10;;;24.80;81.10;;;;;;4974934;28;20363;-80
2023/06/10 11:17:20;;;;;;;6.97;2.07;;;24.80;81.00;;;;;;4989105;28;20222;-79
2023/06/10 11:19:48;;;;;;;7.43;2.23;;;24.70;81.40;;;;;;4996044;28;20204;-79
2023/06/10 11:22:19;;;;;;;8.07;2.07;;;24.60;81.40;;;;;;4991416;28;20213;-79
2023/06/10 11:24:58;;;;;;;3.23;2.03;;;24.60;81.30;;;;;;4993808;28;20228;-79
2023/06/10 11:27:41;;;;;;;5.03;1.90;;;24.60;82.00;;;;;;4996444;28;20206;-79
2023/06/10 11:30:23;;;;;;;4.30;2.00;;;24.50;82.20;;;;;;4977793;28;20213;-79
2023/06/10 11:33:03;;;;;;;3.33;2.00;;;24.40;82.20;;;;;;4995070;28;20232;-80
2023/06/10 11:35:41;;;;;;;2.67;2.20;;;24.40;82.60;;;;;;4993062;28;20625;-83
2023/06/10 11:38:19;;;;;;;7.50;2.43;;;24.40;83.10;;;;;;4980904;28;20217;-79
2023/06/10 11:40:51;;;;;;;4.77;2.27;;;24.40;83.70;;;;;;4979584;28;20209;-79
2023/06/10 11:43:19;;;;;;;4.87;1.90;;;24.40;84.20;;;;;;4991202;28;20540;-79
2023/06/10 11:45:54;;;;;;;6.40;3.30;;;24.50;84.80;;;;;;4987505;28;20216;-79
2023/06/10 11:48:22;;;;;;;4.07;2.60;;;24.60;84.70;;;;;;4990238;28;20209;-79
2023/06/10 11:50:56;;;;;;;5.57;2.90;;;24.60;83.60;;;;;;4987297;28;20307;-79
2023/06/10 11:53:44;;;;;;;10.40;3.17;;;24.60;83.60;;;;;;5013417;28;20317;-79
2023/06/10 11:56:12;;;;;;;4.93;2.80;;;24.60;83.40;;;;;;4990631;28;20295;-78
2023/06/10 11:59:12;;;;;;;6.77;3.87;;;24.60;83.30;;;;;;4999460;28;20345;-79
2023/06/10 12:01:50;;;;;;;6.03;4.17;;;24.60;83.60;;;;;;4992756;28;20658;-78
2023/06/10 12:04:32;;;;;;;8.33;4.27;;;24.60;83.50;;;;;;5001381;28;20219;-79
2023/06/10 12:07:16;;;;;;;7.47;4.53;;;24.60;83.70;;;;;;4999428;28;20652;-79
2023/06/10 12:09:45;;;;;;;7.80;5.17;;;24.60;84.00;;;;;;4989312;28;20221;-81
2023/06/10 12:12:19;;;;;;;8.67;5.40;;;24.60;83.70;;;;;;4998739;28;20645;-79
2023/06/10 12:15:06;;;;;;;7.13;5.07;;;24.60;84.30;;;;;;4999526;28;20262;-78
2023/06/10 12:17:49;;;;;;;7.47;5.20;;;24.60;84.40;;;;;;4998517;28;20689;-78
2023/06/10 12:20:34;;;;;;;7.57;5.17;;;24.60;84.20;;;;;;4982314;28;20200;-78
2023/06/10 12:23:10;;;;;;;8.33;5.50;;;24.60;84.40;;;;;;5011354;28;20208;-79
2023/06/10 12:25:38;;;;;;;7.73;6.87;;;24.70;84.90;;;;;;4989934;28;20218;-80
2023/06/10 12:28:10;;;;;;;11.50;7.43;;;24.60;84.70;;;;;;4998857;28;20278;-78
2023/06/10 12:30:40;;;;;;;14.07;6.67;;;24.60;85.20;;;;;;4983167;28;20595;-79
2023/06/10 12:33:22;;;;;;;8.03;6.30;;;24.60;85.70;;;;;;5014296;28;20226;-79
2023/06/10 12:35:53;;;;;;;10.50;6.17;;;24.60;86.30;;;;;;4998091;28;20321;-79
2023/06/10 12:38:28;;;;;;;9.07;6.77;;;24.60;86.40;;;;;;4976896;28;20197;-78
2023/06/10 12:41:06;;;;;;;8.57;7.63;;;24.60;86.70;;;;;;4984485;28;20254;-79
2023/06/10 12:43:34;;;;;;;10.13;7.67;;;24.70;86.80;;;;;;5004265;28;20215;-80
2023/06/10 12:46:14;;;;;;;15.80;8.97;;;24.70;87.00;;;;;;4981022;28;20219;-78
2023/06/10 12:49:00;;;;;;;9.07;7.40;;;24.80;87.00;;;;;;5013696;28;20290;-79
2023/06/10 12:51:34;;;;;;;9.93;7.50;;;24.80;86.90;;;;;;4997997;28;20215;-79
2023/06/10 12:54:02;;;;;;;10.57;8.03;;;24.80;86.10;;;;;;4994710;28;20244;-79
2023/06/10 12:56:41;;;;;;;16.10;8.47;;;24.80;86.00;;;;;;4994815;28;20245;-79
2023/06/10 12:59:28;;;;;;;10.93;8.00;;;24.80;86.50;;;;;;4978769;28;20275;-80
2023/06/10 13:01:57;;;;;;;10.27;7.97;;;24.80;86.80;;;;;;4997149;28;20224;-79
2023/06/10 13:04:25;;;;;;;11.73;7.43;;;24.80;87.30;;;;;;4994865;28;20263;-79
2023/06/10 13:06:59;;;;;;;9.20;7.97;;;24.80;87.90;;;;;;4994756;28;20205;-80
2023/06/10 13:09:28;;;;;;;9.83;7.70;;;24.90;88.10;;;;;;4998833;28;20358;-80
2023/06/10 13:12:17;;;;;;;9.67;8.23;;;24.90;87.90;;;;;;4995171;28;20242;-79
2023/06/10 13:15:06;;;;;;;10.33;7.87;;;24.90;87.30;;;;;;5005262;28;20224;-79
2023/06/10 13:17:35;;;;;;;18.37;8.03;;;24.90;87.70;;;;;;4994771;28;20209;-79
2023/06/10 13:20:08;;;;;;;9.77;6.80;;;24.90;87.80;;;;;;4980225;28;20209;-80
2023/06/10 13:22:36;;;;;;;7.10;5.53;;;24.90;87.60;;;;;;4986881;28;20218;-78
2023/06/10 13:25:13;;;;;;;7.07;4.60;;;24.80;87.40;;;;;;4976896;28;20295;-81
2023/06/10 13:27:41;;;;;;;8.83;4.73;;;24.80;87.00;;;;;;4977899;28;20212;-78
2023/06/10 13:30:14;;;;;;;5.77;4.93;;;24.80;87.10;;;;;;5008810;28;20232;-78
2023/06/10 13:32:43;;;;;;;10.03;4.57;;;24.70;87.50;;;;;;4990377;28;20210;-78
2023/06/10 13:35:11;;;;;;;9.03;4.93;;;24.60;87.60;;;;;;4992249;28;20201;-79
2023/06/10 13:37:51;;;;;;;7.63;4.50;;;24.60;87.80;;;;;;4981560;28;20228;-79
2023/06/10 13:40:32;;;;;;;7.53;4.83;;;24.40;88.70;;;;;;4995656;28;20211;-79
2023/06/10 13:43:14;;;;;;;10.53;5.10;;;24.40;89.70;;;;;;4979623;28;20224;-79
2023/06/10 13:45:44;;;;;;;6.57;4.73;;;24.40;90.10;;;;;;4995206;28;20717;-80
2023/06/10 13:48:13;;;;;;;8.87;5.70;;;24.30;90.40;;;;;;4980171;28;20214;-80
2023/06/10 13:50:45;;;;;;;7.77;5.17;;;24.40;90.70;;;;;;4979311;28;20722;-80